Laredo International Airport
KLRD : now visible

Airfield :











YOU CAN JOIN US ON...

 
LOGIN :

Register | Disclaimer

   EN    FR    IT 

 









Legend :    VFR   Marginal VFR   IFR   Intensive IFR   Very Intensive IFR
Visi :
Ceiling :
>= 8 km
>= 3000ft
5 to 8 km
1000 to 3000 ft
1500m to 5 km
500 to 1000 ft
800 to 1500m
200 to 500 ft
< 800m
< 200 ft
Symbols :   Thunderstorms  Fog  Heavy snow  Heavy precipitations  Wind > 20 kt






- Airport Elevation : 508 ft
- IATA code : LRD


KLRD - Laredo International

CURRENT METAR :
  • 031156Z 20004KT 10SM FEW007 24/23 A2997 RMK AO2 SLP144 60001 70131 T02390228 10250 20239 58004

EXPIRED METARs :
  • 031140Z 20003KT 10SM FEW007 24/23 A2996 RMK AO2
  • 031056Z 00000KT 10SM CLR 24/23 A2997 RMK AO2 RAE27 SLP144 P0000 T02390228
  • 030956Z AUTO 11004KT 10SM -RA BKN100 24/23 A2998 RMK AO2 LTG DSNT SE AND S RAB01 SLP147 P0001 T02390228

TAF KLRD
Valid from the 03 at 12:00 until the 04 at 12:00 UTC


031139Z 0312/0412 VRB02KT P6SM VCSH SCT045 BKN150
FM031700 VRB06KT P6SM VCTS BKN040CB
TEMPO 0320/0324 VRB20G30KT 2SM +TSRA OVC035CB
FM040300 09004KT P6SM VCTS BKN030CB OVC100
KZHU FIR / North America



MET'MAP, your aeronautical weather chart ! - Copyright ORBIFLY December 2007 - Disclaimer

ORBIFLY MET'MAP TEAM :

Programming & Development : Alexandra Zaïnal
Concept & original design : Baudouin d'Aumeries
Assistance for programming : Marc-Olivier Méhu
Technical & hardware support : Manuel Goepfert

Contact : metmap@orbifly.com




SOURCES & CREDITS :

   NOAA       Earth
Advisory